Time;durP1;ratioP1;P1;durP2;ratioP2;P2;SDS_P1;SDS_P2;PMS_P1;PMS_P2;Temp;Humidity;BMP_temperature;BMP_pressure;BME280_temperature;BME280_humidity;BME280_pressure;Samples;Min_cycle;Max_cycle;Signal;HPM_P1;HPM_P2
2022/02/14 00:01:36;;;;;;;1.92;1.02;;;;;;;9.90;100.00;97231.47;5031556;28;20060;-81
2022/02/14 00:04:41;;;;;;;1.85;1.17;;;;;;;9.88;100.00;97225.69;5031526;28;20065;-81
2022/02/14 00:07:45;;;;;;;1.33;0.45;;;;;;;9.92;100.00;97223.34;5032719;28;20048;-80
2022/02/14 00:10:49;;;;;;;0.77;0.50;;;;;;;9.93;100.00;97230.41;5032801;28;20130;-81
2022/02/14 00:13:52;;;;;;;2.90;1.05;;;;;;;9.90;100.00;97225.91;5032447;28;20510;-79
2022/02/14 00:16:56;;;;;;;0.85;0.63;;;;;;;9.86;100.00;97233.81;5032395;28;20056;-80
2022/02/14 00:19:59;;;;;;;3.97;0.73;;;;;;;9.89;100.00;97230.75;5032227;28;20052;-81
2022/02/14 00:23:03;;;;;;;1.92;0.70;;;;;;;9.90;100.00;97237.78;5031300;28;20056;-81
2022/02/14 00:26:06;;;;;;;1.85;0.63;;;;;;;9.87;100.00;97233.28;5032536;28;20049;-81
2022/02/14 00:29:09;;;;;;;1.17;0.85;;;;;;;9.86;100.00;97239.38;5031040;28;20068;-81
2022/02/14 00:32:13;;;;;;;1.10;0.93;;;;;;;9.80;100.00;97235.97;5031863;28;20064;-80
2022/02/14 00:35:17;;;;;;;1.33;0.70;;;;;;;9.83;100.00;97246.03;5031325;28;20052;-81
2022/02/14 00:38:21;;;;;;;3.97;1.38;;;;;;;9.86;100.00;97236.59;5031079;28;20048;-81
2022/02/14 00:41:24;;;;;;;0.50;0.30;;;;;;;9.90;100.00;97242.59;5032169;28;20075;-81
2022/02/14 00:44:27;;;;;;;2.47;1.20;;;;;;;9.91;100.00;97241.31;5031140;28;20057;-81
2022/02/14 00:47:31;;;;;;;0.30;0.17;;;;;;;9.93;100.00;97241.53;5042199;28;20056;-81
2022/02/14 00:50:34;;;;;;;0.70;0.30;;;;;;;9.90;100.00;97242.59;5031775;28;20067;-80
2022/02/14 00:53:38;;;;;;;1.27;0.82;;;;;;;9.83;100.00;97241.19;5031732;28;20056;-81
2022/02/14 00:56:42;;;;;;;0.50;0.25;;;;;;;9.80;100.00;97241.53;5031675;28;20045;-80
2022/02/14 00:59:45;;;;;;;0.22;0.22;;;;;;;9.77;100.00;97248.13;5031594;28;20053;-80
2022/02/14 01:02:49;;;;;;;0.40;0.40;;;;;;;9.73;100.00;97251.25;5031484;28;20057;-80
2022/02/14 01:05:52;;;;;;;0.10;0.10;;;;;;;9.73;100.00;97250.50;5031521;28;20052;-80
2022/02/14 01:08:55;;;;;;;0.70;0.70;;;;;;;9.72;100.00;97244.16;5031317;28;20056;-80
2022/02/14 01:11:59;;;;;;;0.93;0.25;;;;;;;9.73;100.00;97244.94;5030976;28;20399;-81
2022/02/14 01:15:05;;;;;;;0.30;0.15;;;;;;;9.68;100.00;97237.47;5031354;28;20056;-80
2022/02/14 01:18:09;;;;;;;1.40;0.32;;;;;;;9.65;100.00;97242.03;5041230;28;20053;-80
2022/02/14 01:21:12;;;;;;;2.72;0.65;;;;;;;9.67;100.00;97235.94;5030340;28;20052;-80
2022/02/14 01:24:16;;;;;;;1.85;0.28;;;;;;;9.65;100.00;97244.06;5031250;28;20048;-80
2022/02/14 01:27:19;;;;;;;3.03;0.77;;;;;;;9.69;100.00;97234.13;5031107;28;20411;-81
2022/02/14 01:30:22;;;;;;;2.38;0.73;;;;;;;9.69;100.00;97245.25;5031299;28;20048;-80
2022/02/14 01:33:26;;;;;;;0.30;0.08;;;;;;;9.74;100.00;97240.88;5030950;28;20072;-80
2022/02/14 01:36:29;;;;;;;1.90;0.57;;;;;;;9.77;100.00;97242.56;5030746;28;20553;-80
2022/02/14 01:39:32;;;;;;;0.60;0.57;;;;;;;9.81;100.00;97243.03;5029829;28;20056;-80
2022/02/14 01:42:36;;;;;;;1.88;0.50;;;;;;;9.79;100.00;97248.34;5030046;28;20405;-80
2022/02/14 01:45:39;;;;;;;0.50;0.30;;;;;;;9.69;100.00;97250.06;5030596;28;20502;-80
2022/02/14 01:48:42;;;;;;;0.93;0.38;;;;;;;9.70;100.00;97246.75;5031042;28;20048;-80
2022/02/14 01:51:46;;;;;;;0.30;0.30;;;;;;;9.72;100.00;97243.44;5030108;28;20411;-81
2022/02/14 01:54:50;;;;;;;0.65;0.52;;;;;;;9.72;100.00;97251.78;5031066;28;20056;-80
2022/02/14 01:57:54;;;;;;;0.30;0.10;;;;;;;9.66;100.00;97251.13;5030768;28;20060;-80
2022/02/14 02:00:57;;;;;;;0.30;0.30;;;;;;;9.60;100.00;97254.00;5029795;28;20498;-80
2022/02/14 02:04:01;;;;;;;0.10;0.10;;;;;;;9.65;100.00;97261.50;5029830;28;20509;-80
2022/02/14 02:07:05;;;;;;;0.40;0.30;;;;;;;9.60;100.00;97259.56;5029807;28;20048;-80
2022/02/14 02:10:09;;;;;;;0.30;0.10;;;;;;;9.62;100.00;97251.44;5030879;28;20063;-80
2022/02/14 02:13:16;;;;;;;0.10;0.10;;;;;;;9.66;100.00;97262.97;5029972;28;20521;-79
2022/02/14 02:16:19;;;;;;;0.55;0.40;;;;;;;9.63;100.00;97249.41;5030804;28;20403;-80
2022/02/14 02:19:23;;;;;;;1.70;0.63;;;;;;;9.63;100.00;97257.75;5030534;28;20056;-80
2022/02/14 02:22:26;;;;;;;1.45;0.40;;;;;;;9.60;100.00;97256.03;5029992;28;20049;-80
2022/02/14 02:25:30;;;;;;;0.20;0.20;;;;;;;9.57;100.00;97257.09;5030096;28;20052;-81
2022/02/14 02:28:34;;;;;;;0.30;0.30;;;;;;;9.56;100.00;97264.69;5030632;28;20116;-80
2022/02/14 02:31:37;;;;;;;0.20;0.00;;;;;;;9.53;100.00;97265.00;5029723;28;20057;-80
2022/02/14 02:34:43;;;;;;;3.45;0.43;;;;;;;9.55;100.00;97265.22;5030884;28;20052;-80
2022/02/14 02:37:46;;;;;;;1.95;0.57;;;;;;;9.55;100.00;97273.56;5029504;28;20129;-80
2022/02/14 02:40:50;;;;;;;0.73;0.20;;;;;;;9.53;100.00;97265.00;5029883;28;20049;-80
2022/02/14 02:43:54;;;;;;;0.68;0.25;;;;;;;9.49;100.00;97270.84;5029833;28;20061;-80
2022/02/14 02:46:57;;;;;;;0.22;0.22;;;;;;;9.47;100.00;97267.88;5030099;28;20060;-80
2022/02/14 02:50:00;;;;;;;0.30;0.10;;;;;;;9.43;100.00;97272.22;5030783;28;20048;-80
2022/02/14 02:53:04;;;;;;;1.30;0.45;;;;;;;9.35;100.00;97279.69;5030081;28;20053;-80
2022/02/14 02:56:07;;;;;;;0.40;0.38;;;;;;;9.27;100.00;97271.22;5029893;28;20068;-80
2022/02/14 02:59:11;;;;;;;0.15;0.15;;;;;;;9.27;100.00;97282.31;5033461;28;20052;-80
2022/02/14 03:02:14;;;;;;;0.20;0.20;;;;;;;9.27;100.00;97276.03;5033899;28;20057;-80
2022/02/14 03:05:17;;;;;;;2.00;0.25;;;;;;;9.26;100.00;97280.09;5033804;28;20056;-80
2022/02/14 03:08:22;;;;;;;0.20;0.03;;;;;;;9.26;100.00;97277.31;5033555;28;20053;-80
2022/02/14 03:11:25;;;;;;;1.45;0.22;;;;;;;9.27;100.00;97287.16;5032691;28;20052;-80
2022/02/14 03:14:29;;;;;;;0.10;0.10;;;;;;;9.25;100.00;97281.38;5032790;28;20052;-80
2022/02/14 03:17:32;;;;;;;1.08;0.43;;;;;;;9.22;100.00;97287.97;5032499;28;20053;-80
2022/02/14 03:20:36;;;;;;;0.45;0.28;;;;;;;9.22;100.00;97282.44;5032397;28;20056;-80
2022/02/14 03:23:41;;;;;;;2.28;0.20;;;;;;;9.23;100.00;97281.13;5032123;28;20057;-80
2022/02/14 03:26:44;;;;;;;0.20;0.20;;;;;;;9.22;100.00;97285.97;5033266;28;20048;-80
2022/02/14 03:29:47;;;;;;;0.10;0.10;;;;;;;9.19;100.00;97287.00;5033545;28;20173;-80
2022/02/14 03:32:51;;;;;;;1.65;0.17;;;;;;;9.18;100.00;97290.31;5033239;28;20056;-80
2022/02/14 03:35:54;;;;;;;0.40;0.40;;;;;;;9.06;100.00;97296.03;5032703;28;20052;-80
2022/02/14 03:38:57;;;;;;;0.25;0.25;;;;;;;9.11;100.00;97286.88;5032265;28;20056;-80
2022/02/14 03:42:01;;;;;;;0.35;0.20;;;;;;;9.17;100.00;97289.56;5032433;28;20513;-80
2022/02/14 03:45:05;;;;;;;3.78;0.22;;;;;;;9.19;100.00;97287.00;5033945;28;20057;-80
2022/02/14 03:48:08;;;;;;;0.60;0.55;;;;;;;9.16;100.00;97285.28;5032225;28;20173;-80
2022/02/14 03:51:12;;;;;;;0.63;0.63;;;;;;;9.16;100.00;97297.13;5032248;28;20505;-80
2022/02/14 03:54:16;;;;;;;0.73;0.63;;;;;;;9.14;100.00;97293.38;5032388;28;20411;-80
2022/02/14 03:57:20;;;;;;;1.45;0.28;;;;;;;9.16;100.00;97291.59;5032134;28;20056;-80
2022/02/14 04:00:24;;;;;;;1.00;0.47;;;;;;;9.13;100.00;97295.44;5032004;28;20056;-80
2022/02/14 04:03:28;;;;;;;0.65;0.40;;;;;;;9.15;100.00;97292.88;5032894;28;20069;-80
2022/02/14 04:06:31;;;;;;;0.20;0.20;;;;;;;9.15;100.00;97298.44;5031899;28;20124;-80
2022/02/14 04:09:35;;;;;;;0.13;0.13;;;;;;;9.12;100.00;97299.47;5032458;28;20052;-80
2022/02/14 04:12:38;;;;;;;0.10;0.10;;;;;;;9.08;100.00;97307.38;5032651;28;20052;-80
2022/02/14 04:15:42;;;;;;;0.70;0.55;;;;;;;9.11;100.00;97306.31;5031873;28;20072;-81
2022/02/14 04:18:45;;;;;;;0.10;0.10;;;;;;;9.06;100.00;97306.38;5032461;28;20048;-80
2022/02/14 04:21:49;;;;;;;0.10;0.10;;;;;;;9.12;100.00;97327.25;5032451;28;20056;-81
2022/02/14 04:24:52;;;;;;;0.40;0.30;;;;;;;9.09;100.00;97322.75;5031789;28;20521;-80
2022/02/14 04:27:56;;;;;;;0.10;0.10;;;;;;;9.09;100.00;97333.09;5031530;28;20052;-80
2022/02/14 04:30:59;;;;;;;0.28;0.20;;;;;;;9.10;100.00;97335.34;5032484;28;20052;-80
2022/02/14 04:34:02;;;;;;;0.10;0.10;;;;;;;9.09;100.00;97327.56;5031357;28;20052;-80
2022/02/14 04:37:06;;;;;;;1.05;0.55;;;;;;;9.06;100.00;97337.69;5030935;28;20049;-80
2022/02/14 04:40:10;;;;;;;0.20;0.10;;;;;;;8.98;100.00;97345.13;5031366;28;20052;-80
2022/02/14 04:43:16;;;;;;;0.55;0.40;;;;;;;8.90;100.00;97360.84;5032095;28;20056;-80
2022/02/14 04:46:19;;;;;;;0.30;0.10;;;;;;;8.91;100.00;97362.38;5031745;28;20049;-80
2022/02/14 04:49:23;;;;;;;0.10;0.10;;;;;;;8.89;100.00;97369.72;5030824;28;20052;-80
2022/02/14 04:52:26;;;;;;;0.15;0.13;;;;;;;8.87;100.00;97373.03;5031617;28;20056;-80
2022/02/14 04:55:30;;;;;;;0.25;0.25;;;;;;;8.86;100.00;97379.06;5031218;28;20052;-79
2022/02/14 04:58:33;;;;;;;0.15;0.10;;;;;;;8.86;100.00;97379.81;5031049;28;20056;-81
2022/02/14 05:01:37;;;;;;;0.68;0.13;;;;;;;8.81;100.00;97377.91;5031760;28;20048;-80
2022/02/14 05:04:40;;;;;;;0.22;0.22;;;;;;;8.78;100.00;97387.25;5031515;28;20542;-80
2022/02/14 05:07:45;;;;;;;0.10;0.10;;;;;;;8.78;100.00;97381.69;5030414;28;20056;-80
2022/02/14 05:10:48;;;;;;;0.10;0.10;;;;;;;8.77;100.00;97385.75;5030957;28;20518;-80
2022/02/14 05:13:52;;;;;;;0.20;0.20;;;;;;;8.78;100.00;97384.47;5030887;28;20064;-81
2022/02/14 05:16:55;;;;;;;0.10;0.10;;;;;;;8.76;100.00;97387.03;5031253;28;20399;-81
2022/02/14 05:19:59;;;;;;;0.13;0.13;;;;;;;8.74;100.00;97384.03;5030729;28;20398;-80
2022/02/14 05:23:02;;;;;;;0.43;0.28;;;;;;;8.75;100.00;97382.75;5030251;28;20170;-80
2022/02/14 05:26:06;;;;;;;0.50;0.28;;;;;;;8.74;100.00;97392.34;5031139;28;20052;-80
2022/02/14 05:29:09;;;;;;;0.82;0.10;;;;;;;8.75;100.00;97393.09;5030458;28;20459;-80
2022/02/14 05:32:13;;;;;;;0.10;0.10;;;;;;;8.76;100.00;97400.16;5031267;28;20056;-81
2022/02/14 05:35:17;;;;;;;0.10;0.10;;;;;;;8.75;100.00;97404.94;5031368;28;20066;-80
2022/02/14 05:38:20;;;;;;;0.63;0.13;;;;;;;8.72;100.00;97413.56;5030206;28;20048;-80
2022/02/14 05:41:24;;;;;;;1.98;0.20;;;;;;;8.72;100.00;97417.09;5030649;28;20048;-81
2022/02/14 05:44:28;;;;;;;1.20;0.85;;;;;;;8.75;100.00;97423.63;5031297;28;20061;-80
2022/02/14 05:47:33;;;;;;;2.63;0.90;;;;;;;8.70;100.00;97425.19;5030888;28;20056;-80
2022/02/14 05:50:36;;;;;;;0.98;0.50;;;;;;;8.76;100.00;97433.44;5031108;28;20056;-81
2022/02/14 05:53:40;;;;;;;0.17;0.15;;;;;;;8.82;100.00;97434.13;5030695;28;20064;-80
2022/02/14 05:56:44;;;;;;;0.43;0.43;;;;;;;8.78;100.00;97442.75;5030006;28;20068;-81
2022/02/14 05:59:47;;;;;;;0.52;0.52;;;;;;;8.77;100.00;97449.56;5030244;28;20052;-80
2022/02/14 06:02:50;;;;;;;1.20;0.20;;;;;;;8.80;100.00;97454.09;5030034;28;20460;-80
2022/02/14 06:05:54;;;;;;;0.47;0.20;;;;;;;8.79;100.00;97460.16;5031127;28;20052;-80
2022/02/14 06:08:57;;;;;;;0.57;0.28;;;;;;;8.79;100.00;97466.44;5030916;28;20057;-81
2022/02/14 06:12:01;;;;;;;1.20;0.40;;;;;;;8.75;100.00;97465.25;5030977;28;20053;-81
2022/02/14 06:15:05;;;;;;;0.10;0.10;;;;;;;8.75;100.00;97471.53;5030105;28;20064;-80
2022/02/14 06:18:09;;;;;;;1.45;0.52;;;;;;;8.74;100.00;97461.72;5030587;28;20052;-80
2022/02/14 06:21:12;;;;;;;0.25;0.15;;;;;;;8.76;100.00;97467.50;5031427;28;20547;-80
2022/02/14 06:24:17;;;;;;;0.20;0.13;;;;;;;8.77;100.00;97474.53;5030749;28;20064;-80
2022/02/14 06:27:20;;;;;;;0.73;0.30;;;;;;;8.74;100.00;97475.59;5029930;28;20056;-80
2022/02/14 06:30:24;;;;;;;0.13;0.10;;;;;;;8.72;100.00;97480.16;5030763;28;20052;-80
2022/02/14 06:33:27;;;;;;;0.93;0.52;;;;;;;8.69;100.00;97483.97;5033608;28;20076;-81
2022/02/14 06:36:31;;;;;;;1.50;0.43;;;;;;;8.64;100.00;97487.56;5034215;28;20419;-80
2022/02/14 06:39:34;;;;;;;2.50;1.10;;;;;;;8.60;100.00;97492.66;5033689;28;20056;-79
2022/02/14 06:42:38;;;;;;;4.32;0.47;;;;;;;8.62;100.00;97496.38;5033630;28;20379;-80
2022/02/14 06:45:41;;;;;;;22.33;1.08;;;;;;;8.65;100.00;97500.91;5033889;28;20057;-80
2022/02/14 06:48:45;;;;;;;0.80;0.45;;;;;;;8.62;100.00;97501.94;5034033;28;20052;-80
2022/02/14 06:51:48;;;;;;;1.00;0.60;;;;;;;8.60;100.00;97504.47;5033056;28;20443;-80
2022/02/14 06:54:52;;;;;;;2.75;0.73;;;;;;;8.60;100.00;97514.84;5032971;28;20096;-80
2022/02/14 06:57:56;;;;;;;0.38;0.38;;;;;;;8.63;100.00;97524.88;5034046;28;20056;-81
2022/02/14 07:00:59;;;;;;;0.55;0.30;;;;;;;8.64;100.00;97509.75;5033735;28;20056;-81
2022/02/14 07:04:03;;;;;;;0.25;0.25;;;;;;;8.65;100.00;97514.78;5033077;28;20553;-80
2022/02/14 07:07:07;;;;;;;0.17;0.17;;;;;;;8.63;100.00;97520.09;5033735;28;20431;-80
2022/02/14 07:10:13;;;;;;;2.20;0.40;;;;;;;8.64;100.00;97516.03;5032923;28;20060;-80
2022/02/14 07:13:16;;;;;;;0.52;0.20;;;;;;;8.57;100.00;97516.63;5032593;28;20501;-80
2022/02/14 07:16:20;;;;;;;0.57;0.15;;;;;;;8.59;100.00;97527.97;5032468;28;20056;-80
2022/02/14 07:19:23;;;;;;;0.15;0.10;;;;;;;8.63;100.00;97520.09;5033352;28;20052;-80
2022/02/14 07:22:26;;;;;;;0.35;0.35;;;;;;;8.66;100.00;97532.94;5033274;28;20053;-80
2022/02/14 07:25:30;;;;;;;13.82;0.40;;;;;;;8.69;100.00;97545.75;5032920;28;20078;-80
2022/02/14 07:28:33;;;;;;;0.10;0.10;;;;;;;8.66;100.00;97546.06;5032514;28;20068;-80
2022/02/14 07:31:37;;;;;;;0.30;0.30;;;;;;;8.69;100.00;97551.31;5032545;28;20056;-80
2022/02/14 07:34:40;;;;;;;0.20;0.20;;;;;;;8.67;100.00;97547.53;5033442;28;20052;-80
2022/02/14 07:37:44;;;;;;;0.35;0.10;;;;;;;8.61;100.00;97555.16;5032402;28;20419;-81
2022/02/14 07:40:47;;;;;;;4.78;0.73;;;;;;;8.57;100.00;97561.00;5032670;28;20064;-80
2022/02/14 07:43:50;;;;;;;1.55;0.20;;;;;;;8.63;100.00;97555.41;5031888;28;20128;-80
2022/02/14 07:46:54;;;;;;;0.10;0.10;;;;;;;8.66;100.00;97562.69;5032721;28;20052;-80
2022/02/14 07:49:58;;;;;;;2.95;0.95;;;;;;;8.62;100.00;97562.97;5032984;28;20049;-80
2022/02/14 07:53:01;;;;;;;0.10;0.10;;;;;;;8.59;100.00;97566.78;5032013;28;20076;-80
2022/02/14 07:56:06;;;;;;;0.10;0.10;;;;;;;8.59;100.00;97583.44;5032696;28;20053;-80
2022/02/14 07:59:09;;;;;;;4.28;0.65;;;;;;;8.55;100.00;97585.75;5031959;28;20056;-80
2022/02/14 08:02:13;;;;;;;2.63;0.30;;;;;;;8.54;100.00;97584.22;5031956;28;20399;-80
2022/02/14 08:05:16;;;;;;;0.10;0.10;;;;;;;8.57;100.00;97588.75;5013646;28;20518;-80
2022/02/14 08:08:20;;;;;;;0.90;0.30;;;;;;;8.59;100.00;97586.22;5040873;28;20056;-80
2022/02/14 08:11:23;;;;;;;0.10;0.10;;;;;;;8.58;100.00;97590.25;5031811;28;20072;-80
2022/02/14 08:14:27;;;;;;;0.10;0.10;;;;;;;8.51;100.00;97588.03;5031697;28;20064;-80
2022/02/14 08:17:30;;;;;;;0.80;0.35;;;;;;;8.54;100.00;97589.78;5032236;28;20076;-80
2022/02/14 08:20:34;;;;;;;0.10;0.10;;;;;;;8.47;100.00;97584.78;5031513;28;20056;-80
2022/02/14 08:23:37;;;;;;;0.10;0.10;;;;;;;8.44;100.00;97585.84;5033694;28;20068;-80
2022/02/14 08:26:41;;;;;;;0.30;0.20;;;;;;;8.44;100.00;97588.59;5031664;28;20048;-80
2022/02/14 08:29:45;;;;;;;0.55;0.20;;;;;;;8.44;100.00;97591.38;5032118;28;20060;-80
2022/02/14 08:32:49;;;;;;;0.20;0.20;;;;;;;8.36;100.00;97598.72;5030809;28;20060;-80
2022/02/14 08:35:53;;;;;;;0.90;0.35;;;;;;;8.40;100.00;97602.72;5022312;28;20057;-80
2022/02/14 08:38:57;;;;;;;0.15;0.10;;;;;;;8.47;100.00;97603.47;5019487;28;20044;-80
2022/02/14 08:42:00;;;;;;;0.30;0.30;;;;;;;8.45;100.00;97614.28;5021200;28;20128;-80
2022/02/14 08:45:04;;;;;;;0.10;0.10;;;;;;;8.51;100.00;97613.00;5042792;28;20057;-80
2022/02/14 08:48:07;;;;;;;0.10;0.10;;;;;;;8.49;100.00;97612.03;5021630;28;20068;-80
2022/02/14 08:51:11;;;;;;;0.32;0.32;;;;;;;8.46;100.00;97605.47;5023276;28;20052;-81
2022/02/14 08:54:15;;;;;;;0.10;0.10;;;;;;;8.45;100.00;97615.06;5021330;28;20052;-81
2022/02/14 08:57:18;;;;;;;2.72;0.10;;;;;;;8.50;100.00;97619.06;5027858;28;20068;-82
2022/02/14 09:00:22;;;;;;;0.20;0.15;;;;;;;8.51;100.00;97629.63;5031959;28;20048;-81
2022/02/14 09:03:25;;;;;;;0.10;0.00;;;;;;;8.61;100.00;97625.28;5031911;28;20060;-81
2022/02/14 09:06:29;;;;;;;0.65;0.20;;;;;;;8.64;100.00;97627.00;5030549;28;20049;-81
2022/02/14 09:09:33;;;;;;;0.35;0.35;;;;;;;8.54;100.00;97625.09;5031367;28;20056;-81
2022/02/14 09:12:36;;;;;;;0.28;0.28;;;;;;;8.56;100.00;97634.41;5031216;28;20545;-81
2022/02/14 09:15:40;;;;;;;0.28;0.28;;;;;;;8.56;100.00;97644.72;5030413;28;20049;-80
2022/02/14 09:18:43;;;;;;;0.20;0.20;;;;;;;8.57;100.00;97658.09;5029860;28;20510;-79
2022/02/14 09:21:47;;;;;;;0.10;0.10;;;;;;;8.54;100.00;97656.34;5030079;28;20067;-79
2022/02/14 09:24:51;;;;;;;1.30;0.25;;;;;;;8.54;100.00;97652.81;5030407;28;20049;-79
2022/02/14 09:27:55;;;;;;;4.53;0.73;;;;;;;8.43;100.00;97661.97;5031226;28;20060;-79
2022/02/14 09:30:59;;;;;;;0.82;0.63;;;;;;;8.44;100.00;97663.50;5031084;28;20064;-80
2022/02/14 09:34:03;;;;;;;1.95;0.43;;;;;;;8.44;100.00;97674.59;5030183;28;20647;-79
2022/02/14 09:37:07;;;;;;;0.38;0.30;;;;;;;8.39;100.00;97672.59;5030182;28;20129;-79
2022/02/14 09:40:11;;;;;;;0.15;0.10;;;;;;;8.40;100.00;97685.94;5030092;28;20060;-80
2022/02/14 09:43:14;;;;;;;0.30;0.30;;;;;;;8.39;100.00;97683.69;5029936;28;20403;-80
2022/02/14 09:46:19;;;;;;;0.10;0.10;;;;;;;8.48;100.00;97696.50;5030478;28;20073;-80
2022/02/14 09:49:25;;;;;;;0.63;0.20;;;;;;;8.51;100.00;97704.53;5030991;28;20048;-80
2022/02/14 09:52:30;;;;;;;0.95;0.30;;;;;;;8.56;100.00;97705.75;5010063;28;20523;-80
2022/02/14 09:55:35;;;;;;;0.15;0.15;;;;;;;8.58;100.00;97715.09;5011235;28;20519;-80
2022/02/14 09:58:38;;;;;;;0.10;0.10;;;;;;;8.55;100.00;97710.59;5010473;28;20053;-78
2022/02/14 10:01:42;;;;;;;0.10;0.10;;;;;;;8.49;100.00;97720.94;5010795;28;20057;-79
2022/02/14 10:05:00;;;;;;;0.17;0.17;;;;;;;8.42;100.00;97738.13;5033016;28;20053;-79
2022/02/14 10:08:04;;;;;;;1.20;0.38;;;;;;;8.39;100.00;97739.16;5031157;28;20064;-80
2022/02/14 10:11:13;;;;;;;1.10;0.30;;;;;;;8.31;100.00;97738.19;5034819;28;20048;-79
2022/02/14 10:14:19;;;;;;;2.92;0.95;;;;;;;8.24;100.00;97755.31;5033886;28;20060;-79
2022/02/14 10:17:24;;;;;;;1.40;0.40;;;;;;;8.21;100.00;97750.78;5033702;28;20546;-80
2022/02/14 10:20:30;;;;;;;0.82;0.45;;;;;;;8.20;100.00;97761.16;5034896;28;20056;-80
2022/02/14 10:23:34;;;;;;;0.15;0.15;;;;;;;8.12;100.00;97754.59;5027605;28;20057;-80
2022/02/14 10:26:45;;;;;;;1.75;0.65;;;;;;;8.14;100.00;97757.63;5026667;28;20056;-80
2022/02/14 10:29:49;;;;;;;3.00;0.63;;;;;;;8.24;100.00;97764.41;5045599;28;20052;-80
2022/02/14 10:32:53;;;;;;;0.50;0.45;;;;;;;8.40;100.00;97769.13;5023894;28;20053;-80
2022/02/14 10:35:56;;;;;;;3.10;0.35;;;;;;;8.55;100.00;97768.84;5021516;28;20061;-80
2022/02/14 10:39:22;;;;;;;0.57;0.28;;;;;;;8.69;100.00;97766.97;5033246;28;20057;-80
2022/02/14 10:42:34;;;;;;;0.20;0.20;;;;;;;8.72;100.00;97775.03;5045092;28;20155;-80
2022/02/14 10:45:51;;;;;;;0.52;0.20;;;;;;;8.76;100.00;97789.41;5034777;28;20040;-80
2022/02/14 10:48:56;;;;;;;1.45;0.32;;;;;;;8.71;100.00;97790.16;5024928;28;20053;-80
2022/02/14 10:52:11;;;;;;;0.65;0.32;;;;;;;8.68;100.00;97799.53;5031632;28;20406;-80
2022/02/14 10:55:26;;;;;;;1.98;0.38;;;;;;;8.77;100.00;97810.31;5032709;28;20076;-80
2022/02/14 10:58:30;;;;;;;0.30;0.30;;;;;;;8.75;100.00;97821.19;5032981;28;20678;-80
2022/02/14 11:01:34;;;;;;;0.22;0.10;;;;;;;8.76;100.00;97828.25;5033626;28;20077;-80
2022/02/14 11:04:37;;;;;;;0.20;0.20;;;;;;;8.69;100.00;97845.44;5032842;28;20060;-80
2022/02/14 11:07:42;;;;;;;14.55;0.68;;;;;;;8.63;100.00;97857.81;5033596;28;20053;-80
2022/02/14 11:10:49;;;;;;;0.52;0.40;;;;;;;8.53;100.00;97854.59;5033437;28;20049;-80
2022/02/14 11:13:55;;;;;;;0.20;0.20;;;;;;;8.53;100.00;97857.38;5032784;28;20052;-80
2022/02/14 11:17:01;;;;;;;0.52;0.30;;;;;;;8.53;100.00;97859.38;5032813;28;20442;-80
2022/02/14 11:20:07;;;;;;;2.17;0.38;;;;;;;8.56;100.00;97863.88;5032813;28;20048;-80
2022/02/14 11:23:13;;;;;;;1.98;0.93;;;;;;;8.58;100.00;97866.91;5032499;28;20052;-80
2022/02/14 11:26:42;;;;;;;3.72;1.00;;;;;;;8.67;100.00;97877.72;5033479;28;20510;-80
2022/02/14 11:29:53;;;;;;;7.85;1.38;;;;;;;8.86;100.00;97882.19;5033193;28;20553;-80
2022/02/14 11:33:04;;;;;;;5.45;1.00;;;;;;;8.97;100.00;97887.69;5032815;28;20048;-80
2022/02/14 11:36:10;;;;;;;0.63;0.57;;;;;;;9.01;100.00;97879.84;5033006;28;20060;-80
2022/02/14 11:39:28;;;;;;;1.45;0.50;;;;;;;9.05;100.00;97896.97;5032000;28;20432;-81
2022/02/14 11:42:32;;;;;;;0.63;0.28;;;;;;;9.06;100.00;97898.50;5032879;28;20052;-79
2022/02/14 11:45:37;;;;;;;0.90;0.45;;;;;;;9.11;100.00;97908.06;5033402;28;20052;-79
2022/02/14 11:48:40;;;;;;;1.40;0.93;;;;;;;9.02;100.00;97914.66;5031954;28;20052;-79
2022/02/14 11:51:57;;;;;;;1.25;0.40;;;;;;;8.86;100.00;97921.03;5028341;28;20056;-80
2022/02/14 11:55:08;;;;;;;0.10;0.10;;;;;;;8.69;100.00;97923.13;5022565;28;20065;-79
2022/02/14 11:58:12;;;;;;;3.83;0.30;;;;;;;8.57;100.00;97926.44;5029425;28;20060;-80
2022/02/14 12:01:26;;;;;;;0.60;0.50;;;;;;;8.54;100.00;97930.22;5031864;28;20056;-80
2022/02/14 12:04:31;;;;;;;0.55;0.20;;;;;;;8.51;100.00;97940.31;5032631;28;20060;-80
2022/02/14 12:07:39;;;;;;;0.43;0.43;;;;;;;8.54;100.00;97944.84;5032129;28;20056;-79
2022/02/14 12:10:50;;;;;;;0.65;0.20;;;;;;;8.53;100.00;97943.38;5031733;28;20403;-80
2022/02/14 12:13:56;;;;;;;0.20;0.20;;;;;;;8.48;100.00;97952.44;5031117;28;20063;-80
2022/02/14 12:20:36;;;;;;;0.15;0.15;;;;;;;8.57;100.00;97960.50;5031966;28;20048;-79
2022/02/14 12:23:51;;;;;;;0.38;0.20;;;;;;;8.58;100.00;97978.63;5030784;28;20526;-80
2022/02/14 12:27:00;;;;;;;0.20;0.20;;;;;;;8.70;100.00;97974.59;5030735;28;20072;-80
2022/02/14 12:30:20;;;;;;;0.10;0.10;;;;;;;8.74;100.00;97980.63;5031782;28;20068;-79
2022/02/14 12:33:25;;;;;;;0.10;0.10;;;;;;;8.77;100.00;97987.94;5031917;28;20056;-78
2022/02/14 12:36:28;;;;;;;2.53;1.13;;;;;;;8.77;100.00;97992.75;5030914;28;20048;-79
2022/02/14 12:39:38;;;;;;;0.20;0.15;;;;;;;8.73;100.00;97993.00;5031772;28;20056;-79
2022/02/14 12:42:41;;;;;;;3.45;0.55;;;;;;;8.73;100.00;98006.84;5031581;28;20076;-80
2022/02/14 12:45:46;;;;;;;1.27;0.40;;;;;;;8.69;100.00;98000.81;5032048;28;20437;-79
2022/02/14 12:48:51;;;;;;;3.95;0.93;;;;;;;8.68;100.00;98013.19;5031597;28;20052;-79
2022/02/14 12:52:08;;;;;;;2.75;0.60;;;;;;;8.73;100.00;98009.63;5031801;28;20057;-79
2022/02/14 12:55:14;;;;;;;1.08;0.40;;;;;;;8.73;100.00;98015.19;5030415;28;20513;-79
2022/02/14 12:58:17;;;;;;;0.10;0.10;;;;;;;8.83;100.00;98010.91;5031138;28;20053;-79
2022/02/14 13:01:23;;;;;;;0.45;0.35;;;;;;;9.04;100.00;98014.09;5031667;28;20395;-78
2022/02/14 13:04:29;;;;;;;0.10;0.10;;;;;;;9.31;100.00;98020.84;5030812;28;20056;-79
2022/02/14 13:07:32;;;;;;;3.35;0.20;;;;;;;9.60;100.00;98020.16;5031092;28;20048;-79
2022/02/14 13:10:46;;;;;;;1.13;0.13;;;;;;;10.09;100.00;98021.16;5030443;28;20048;-79
2022/02/14 13:13:49;;;;;;;0.55;0.55;;;;;;;10.28;100.00;98022.81;5028169;28;20068;-80
2022/02/14 13:16:54;;;;;;;0.10;0.10;;;;;;;10.45;100.00;98026.19;5030042;28;20048;-80
2022/02/14 13:19:59;;;;;;;0.10;0.10;;;;;;;10.40;100.00;98023.44;5030112;28;20052;-80
2022/02/14 13:23:03;;;;;;;0.20;0.20;;;;;;;10.26;100.00;98019.78;5029507;28;20072;-78
2022/02/14 13:26:27;;;;;;;0.10;0.10;;;;;;;10.23;100.00;98034.72;5031144;28;20084;-80
2022/02/14 13:29:45;;;;;;;4.53;0.40;;;;;;;10.20;100.00;98046.88;5030274;28;20060;-80
2022/02/14 13:32:50;;;;;;;0.20;0.20;;;;;;;10.08;100.00;98047.44;5029668;28;20060;-81
2022/02/14 13:36:05;;;;;;;0.20;0.10;;;;;;;10.27;100.00;98051.88;5052665;28;20403;-82
2022/02/14 13:39:09;;;;;;;0.15;0.10;;;;;;;10.43;100.00;98042.66;5021648;28;20060;-81
2022/02/14 13:42:22;;;;;;;2.15;0.43;;;;;;;10.56;100.00;98048.38;5023098;28;20057;-81
2022/02/14 13:45:42;;;;;;;4.07;0.80;;;;;;;10.68;100.00;98044.19;5030545;28;20052;-81
2022/02/14 13:48:47;;;;;;;0.82;0.40;;;;;;;10.66;100.00;98057.88;5010251;28;20049;-82
2022/02/14 13:51:50;;;;;;;4.00;0.55;;;;;;;10.51;100.00;98063.06;5026557;28;20076;-81
2022/02/14 13:55:07;;;;;;;2.00;0.38;;;;;;;10.39;100.00;98067.22;5029889;28;20072;-82
2022/02/14 13:58:24;;;;;;;11.02;0.88;;;;;;;10.46;100.00;98071.47;5027858;28;20514;-81
2022/02/14 14:01:31;;;;;;;0.38;0.38;;;;;;;10.62;100.00;98065.78;5029713;28;20402;-79
2022/02/14 14:04:35;;;;;;;0.95;0.25;;;;;;;10.64;100.00;98074.34;5029462;28;20533;-81
2022/02/14 14:07:42;;;;;;;2.03;1.02;;;;;;;10.53;100.00;98077.22;5029421;28;20056;-81
2022/02/14 14:10:48;;;;;;;1.35;0.45;;;;;;;10.30;100.00;98075.91;5029910;28;20052;-82
2022/02/14 14:13:55;;;;;;;1.10;0.88;;;;;;;10.12;100.00;98098.75;5029748;28;20057;-81
2022/02/14 14:16:59;;;;;;;1.55;0.20;;;;;;;10.01;100.00;98093.25;5028650;28;20056;-81
2022/02/14 14:20:03;;;;;;;0.90;0.35;;;;;;;9.89;100.00;98098.13;5028718;28;20265;-80
2022/02/14 14:23:08;;;;;;;0.43;0.43;;;;;;;9.64;100.00;98098.47;5029363;28;20056;-80
2022/02/14 14:26:11;;;;;;;3.03;0.68;;;;;;;9.51;100.00;98101.03;5029339;28;20399;-81
2022/02/14 14:29:15;;;;;;;2.15;0.75;;;;;;;9.36;100.00;98108.94;5016566;28;20052;-81
2022/02/14 14:32:18;;;;;;;0.20;0.20;;;;;;;9.17;100.00;98103.19;5021872;28;20049;-80